sensor_id;sensor_type;location;lat;lon;timestamp;pressure;altitude;pressure_sealevel;temperature;humidity
5298;BME280;14738;42.668;23.250;2022-12-29T00:01:36;48586.84;;;-141.90;100.00
5298;BME280;14738;42.668;23.250;2022-12-29T00:04:02;48570.97;;;-141.90;100.00
5298;BME280;14738;42.668;23.250;2022-12-29T00:06:29;48576.91;;;-141.90;100.00
5298;BME280;14738;42.668;23.250;2022-12-29T00:08:54;48561.03;;;-141.90;100.00
5298;BME280;14738;42.668;23.250;2022-12-29T00:11:25;48565.00;;;-141.90;100.00
5298;BME280;14738;42.668;23.250;2022-12-29T00:13:51;48580.88;;;-141.90;100.00
5298;BME280;14738;42.668;23.250;2022-12-29T00:16:36;48582.88;;;-141.90;100.00
5298;BME280;14738;42.668;23.250;2022-12-29T00:19:03;48572.94;;;-141.90;100.00
5298;BME280;14738;42.668;23.250;2022-12-29T00:21:29;48563.03;;;-141.90;100.00
5298;BME280;14738;42.668;23.250;2022-12-29T00:24:22;48561.03;;;-141.90;100.00
5298;BME280;14738;42.668;23.250;2022-12-29T00:29:50;48612.66;;;-141.90;100.00
5298;BME280;14738;42.668;23.250;2022-12-29T00:32:35;48553.09;;;-141.90;100.00
5298;BME280;14738;42.668;23.250;2022-12-29T00:35:47;48586.84;;;-141.90;100.00
5298;BME280;14738;42.668;23.250;2022-12-29T00:38:16;48557.06;;;-141.90;100.00
5298;BME280;14738;42.668;23.250;2022-12-29T00:41:00;48545.16;;;-141.90;100.00
5298;BME280;14738;42.668;23.250;2022-12-29T00:43:44;48568.97;;;-141.90;100.00
5298;BME280;14738;42.668;23.250;2022-12-29T00:46:28;48576.91;;;-141.90;100.00
5298;BME280;14738;42.668;23.250;2022-12-29T00:48:53;48580.88;;;-141.90;100.00
5298;BME280;14738;42.668;23.250;2022-12-29T00:51:37;48576.91;;;-141.90;100.00
5298;BME280;14738;42.668;23.250;2022-12-29T00:54:03;48561.03;;;-141.90;100.00
5298;BME280;14738;42.668;23.250;2022-12-29T00:56:28;48563.03;;;-141.90;100.00
5298;BME280;14738;42.668;23.250;2022-12-29T00:58:53;48588.84;;;-141.90;100.00
5298;BME280;14738;42.668;23.250;2022-12-29T01:01:19;48572.94;;;-141.90;100.00
5298;BME280;14738;42.668;23.250;2022-12-29T01:03:44;48578.91;;;-141.90;100.00
5298;BME280;14738;42.668;23.250;2022-12-29T01:06:12;48551.09;;;-141.90;100.00
5298;BME280;14738;42.668;23.250;2022-12-29T01:08:37;48580.88;;;-141.90;100.00
5298;BME280;14738;42.668;23.250;2022-12-29T01:11:08;48568.97;;;-141.90;100.00
5298;BME280;14738;42.668;23.250;2022-12-29T01:13:35;48557.06;;;-141.90;100.00
5298;BME280;14738;42.668;23.250;2022-12-29T01:16:01;48565.00;;;-141.90;100.00
5298;BME280;14738;42.668;23.250;2022-12-29T01:18:26;48576.91;;;-141.90;100.00
5298;BME280;14738;42.668;23.250;2022-12-29T01:21:01;48553.09;;;-141.90;100.00
5298;BME280;14738;42.668;23.250;2022-12-29T01:23:28;48557.06;;;-141.90;100.00
5298;BME280;14738;42.668;23.250;2022-12-29T01:25:53;48584.84;;;-141.90;100.00
5298;BME280;14738;42.668;23.250;2022-12-29T01:28:19;48535.22;;;-141.90;100.00
5298;BME280;14738;42.668;23.250;2022-12-29T01:30:44;48568.97;;;-141.90;100.00
5298;BME280;14738;42.668;23.250;2022-12-29T01:33:10;48584.84;;;-141.90;100.00
5298;BME280;14738;42.668;23.250;2022-12-29T01:35:35;48594.78;;;-141.90;100.00
5298;BME280;14738;42.668;23.250;2022-12-29T01:38:01;48600.75;;;-141.90;100.00
5298;BME280;14738;42.668;23.250;2022-12-29T01:40:27;48584.84;;;-141.90;100.00
5298;BME280;14738;42.668;23.250;2022-12-29T01:42:53;48565.00;;;-141.90;100.00
5298;BME280;14738;42.668;23.250;2022-12-29T01:45:19;48580.88;;;-141.90;100.00
5298;BME280;14738;42.668;23.250;2022-12-29T01:47:54;48568.97;;;-141.90;100.00
5298;BME280;14738;42.668;23.250;2022-12-29T01:50:36;48592.81;;;-141.90;100.00
5298;BME280;14738;42.668;23.250;2022-12-29T01:53:09;48578.91;;;-141.90;100.00
5298;BME280;14738;42.668;23.250;2022-12-29T01:55:43;48592.81;;;-141.90;100.00
5298;BME280;14738;42.668;23.250;2022-12-29T01:58:10;48588.84;;;-141.90;100.00
5298;BME280;14738;42.668;23.250;2022-12-29T02:00:37;48590.81;;;-141.90;100.00
5298;BME280;14738;42.668;23.250;2022-12-29T02:03:04;48588.84;;;-141.90;100.00
5298;BME280;14738;42.668;23.250;2022-12-29T02:05:34;48590.81;;;-141.90;100.00
5298;BME280;14738;42.668;23.250;2022-12-29T02:08:03;48572.94;;;-141.90;100.00
5298;BME280;14738;42.668;23.250;2022-12-29T02:10:31;48561.03;;;-141.90;100.00
5298;BME280;14738;42.668;23.250;2022-12-29T02:12:58;48578.91;;;-141.90;100.00
5298;BME280;14738;42.668;23.250;2022-12-29T02:24:37;48563.03;;;-141.90;100.00
5298;BME280;14738;42.668;23.250;2022-12-29T02:27:24;48592.81;;;-141.90;100.00
5298;BME280;14738;42.668;23.250;2022-12-29T02:41:40;48574.94;;;-141.90;100.00
5298;BME280;14738;42.668;23.250;2022-12-29T02:44:34;48561.03;;;-141.90;100.00
5298;BME280;14738;42.668;23.250;2022-12-29T02:47:00;48598.75;;;-141.90;100.00
5298;BME280;14738;42.668;23.250;2022-12-29T02:52:33;48578.91;;;-141.90;100.00
5298;BME280;14738;42.668;23.250;2022-12-29T02:54:59;48565.00;;;-141.90;100.00
5298;BME280;14738;42.668;23.250;2022-12-29T03:00:23;48572.94;;;-141.90;100.00
5298;BME280;14738;42.668;23.250;2022-12-29T03:03:16;48576.91;;;-141.90;100.00
5298;BME280;14738;42.668;23.250;2022-12-29T03:11:16;48590.81;;;-141.90;100.00
5298;BME280;14738;42.668;23.250;2022-12-29T03:14:17;48545.16;;;-141.90;100.00
5298;BME280;14738;42.668;23.250;2022-12-29T03:17:29;48576.91;;;-141.90;100.00
5298;BME280;14738;42.668;23.250;2022-12-29T03:20:04;48600.75;;;-141.90;100.00
5298;BME280;14738;42.668;23.250;2022-12-29T03:22:36;48576.91;;;-141.90;100.00
5298;BME280;14738;42.668;23.250;2022-12-29T03:27:33;48596.78;;;-141.90;100.00
5298;BME280;14738;42.668;23.250;2022-12-29T03:30:04;48586.84;;;-141.90;100.00
5298;BME280;14738;42.668;23.250;2022-12-29T03:32:37;48570.97;;;-141.90;100.00
5298;BME280;14738;42.668;23.250;2022-12-29T03:35:05;48586.84;;;-141.90;100.00
5298;BME280;14738;42.668;23.250;2022-12-29T03:37:42;48598.75;;;-141.90;100.00
5298;BME280;14738;42.668;23.250;2022-12-29T03:40:08;48604.72;;;-141.90;100.00
5298;BME280;14738;42.668;23.250;2022-12-29T03:42:35;48588.84;;;-141.90;100.00
5298;BME280;14738;42.668;23.250;2022-12-29T03:45:04;48588.84;;;-141.90;100.00
5298;BME280;14738;42.668;23.250;2022-12-29T03:47:29;48590.81;;;-141.90;100.00
5298;BME280;14738;42.668;23.250;2022-12-29T03:49:55;48598.75;;;-141.90;100.00
5298;BME280;14738;42.668;23.250;2022-12-29T03:52:20;48616.63;;;-141.90;100.00
5298;BME280;14738;42.668;23.250;2022-12-29T03:54:46;48620.59;;;-141.90;100.00
5298;BME280;14738;42.668;23.250;2022-12-29T03:57:12;48616.63;;;-141.90;100.00
5298;BME280;14738;42.668;23.250;2022-12-29T03:59:37;48604.72;;;-141.90;100.00
5298;BME280;14738;42.668;23.250;2022-12-29T04:02:03;48596.78;;;-141.90;100.00
5298;BME280;14738;42.668;23.250;2022-12-29T04:04:28;48584.84;;;-141.90;100.00
5298;BME280;14738;42.668;23.250;2022-12-29T04:06:53;48580.88;;;-141.90;100.00
5298;BME280;14738;42.668;23.250;2022-12-29T04:09:19;48592.81;;;-141.90;100.00
5298;BME280;14738;42.668;23.250;2022-12-29T04:11:44;48616.63;;;-141.90;100.00
5298;BME280;14738;42.668;23.250;2022-12-29T04:14:10;48606.69;;;-141.90;100.00
5298;BME280;14738;42.668;23.250;2022-12-29T04:16:35;48606.69;;;-141.90;100.00
5298;BME280;14738;42.668;23.250;2022-12-29T04:19:07;48630.53;;;-141.90;100.00
5298;BME280;14738;42.668;23.250;2022-12-29T04:21:32;48630.53;;;-141.90;100.00
5298;BME280;14738;42.668;23.250;2022-12-29T04:23:58;48608.69;;;-141.90;100.00
5298;BME280;14738;42.668;23.250;2022-12-29T04:26:23;48616.63;;;-141.90;100.00
5298;BME280;14738;42.668;23.250;2022-12-29T04:28:49;48620.59;;;-141.90;100.00
5298;BME280;14738;42.668;23.250;2022-12-29T04:31:14;48612.66;;;-141.90;100.00
5298;BME280;14738;42.668;23.250;2022-12-29T04:33:40;48616.63;;;-141.90;100.00
5298;BME280;14738;42.668;23.250;2022-12-29T04:36:06;48608.69;;;-141.90;100.00
5298;BME280;14738;42.668;23.250;2022-12-29T04:38:31;48620.59;;;-141.90;100.00
5298;BME280;14738;42.668;23.250;2022-12-29T04:40:59;48606.69;;;-141.90;100.00
5298;BME280;14738;42.668;23.250;2022-12-29T04:43:25;48628.53;;;-141.90;100.00
5298;BME280;14738;42.668;23.250;2022-12-29T04:45:53;48600.75;;;-141.90;100.00
5298;BME280;14738;42.668;23.250;2022-12-29T04:48:19;48632.50;;;-141.90;100.00
5298;BME280;14738;42.668;23.250;2022-12-29T04:50:48;48620.59;;;-141.90;100.00
5298;BME280;14738;42.668;23.250;2022-12-29T04:53:14;48614.63;;;-141.90;100.00
5298;BME280;14738;42.668;23.250;2022-12-29T04:55:40;48580.88;;;-141.90;100.00
5298;BME280;14738;42.668;23.250;2022-12-29T04:58:06;48594.78;;;-141.90;100.00
5298;BME280;14738;42.668;23.250;2022-12-29T05:00:32;48640.44;;;-141.90;100.00
5298;BME280;14738;42.668;23.250;2022-12-29T05:02:58;48620.59;;;-141.90;100.00
5298;BME280;14738;42.668;23.250;2022-12-29T05:05:24;48592.81;;;-141.90;100.00
5298;BME280;14738;42.668;23.250;2022-12-29T05:07:49;48608.69;;;-141.90;100.00
5298;BME280;14738;42.668;23.250;2022-12-29T05:10:15;48596.78;;;-141.90;100.00
5298;BME280;14738;42.668;23.250;2022-12-29T05:12:40;48606.69;;;-141.90;100.00
5298;BME280;14738;42.668;23.250;2022-12-29T05:15:07;48608.69;;;-141.90;100.00
5298;BME280;14738;42.668;23.250;2022-12-29T05:17:33;48628.53;;;-141.90;100.00
5298;BME280;14738;42.668;23.250;2022-12-29T05:19:58;48604.72;;;-141.90;100.00
5298;BME280;14738;42.668;23.250;2022-12-29T05:22:24;48576.91;;;-141.90;100.00
5298;BME280;14738;42.668;23.250;2022-12-29T05:24:49;48588.84;;;-141.90;100.00
5298;BME280;14738;42.668;23.250;2022-12-29T05:27:14;48570.97;;;-141.90;100.00
5298;BME280;14738;42.668;23.250;2022-12-29T05:29:40;48616.63;;;-141.90;100.00
5298;BME280;14738;42.668;23.250;2022-12-29T05:32:05;48602.72;;;-141.90;100.00
5298;BME280;14738;42.668;23.250;2022-12-29T05:34:31;48600.75;;;-141.90;100.00
5298;BME280;14738;42.668;23.250;2022-12-29T05:36:56;48620.59;;;-141.90;100.00
5298;BME280;14738;42.668;23.250;2022-12-29T05:39:21;48612.66;;;-141.90;100.00
5298;BME280;14738;42.668;23.250;2022-12-29T05:41:47;48596.78;;;-141.90;100.00
5298;BME280;14738;42.668;23.250;2022-12-29T05:44:12;48618.59;;;-141.90;100.00
5298;BME280;14738;42.668;23.250;2022-12-29T05:46:38;48612.66;;;-141.90;100.00
5298;BME280;14738;42.668;23.250;2022-12-29T05:49:04;48592.81;;;-141.90;100.00
5298;BME280;14738;42.668;23.250;2022-12-29T05:51:30;48586.84;;;-141.90;100.00
5298;BME280;14738;42.668;23.250;2022-12-29T05:53:55;48572.94;;;-141.90;100.00
5298;BME280;14738;42.668;23.250;2022-12-29T05:56:21;48600.75;;;-141.90;100.00
5298;BME280;14738;42.668;23.250;2022-12-29T05:58:47;48565.00;;;-141.90;100.00
5298;BME280;14738;42.668;23.250;2022-12-29T06:01:12;48582.88;;;-141.90;100.00
5298;BME280;14738;42.668;23.250;2022-12-29T06:03:37;48586.84;;;-141.90;100.00
5298;BME280;14738;42.668;23.250;2022-12-29T06:06:03;48600.75;;;-141.90;100.00
5298;BME280;14738;42.668;23.250;2022-12-29T06:08:28;48588.84;;;-141.90;100.00
5298;BME280;14738;42.668;23.250;2022-12-29T06:10:54;48580.88;;;-141.90;100.00
5298;BME280;14738;42.668;23.250;2022-12-29T06:13:19;48598.75;;;-141.90;100.00
5298;BME280;14738;42.668;23.250;2022-12-29T06:15:45;48594.78;;;-141.90;100.00
5298;BME280;14738;42.668;23.250;2022-12-29T06:18:12;48596.78;;;-141.90;100.00
5298;BME280;14738;42.668;23.250;2022-12-29T06:20:38;48578.91;;;-141.90;100.00
5298;BME280;14738;42.668;23.250;2022-12-29T06:23:03;48592.81;;;-141.90;100.00
5298;BME280;14738;42.668;23.250;2022-12-29T06:25:47;48572.94;;;-141.90;100.00
5298;BME280;14738;42.668;23.250;2022-12-29T06:28:13;48561.03;;;-141.90;100.00
5298;BME280;14738;42.668;23.250;2022-12-29T06:30:38;48610.66;;;-141.90;100.00
5298;BME280;14738;42.668;23.250;2022-12-29T06:33:04;48561.03;;;-141.90;100.00
5298;BME280;14738;42.668;23.250;2022-12-29T06:35:29;48584.84;;;-141.90;100.00
5298;BME280;14738;42.668;23.250;2022-12-29T06:37:54;48588.84;;;-141.90;100.00
5298;BME280;14738;42.668;23.250;2022-12-29T06:40:21;48574.94;;;-141.90;100.00
5298;BME280;14738;42.668;23.250;2022-12-29T06:42:47;48568.97;;;-141.90;100.00
5298;BME280;14738;42.668;23.250;2022-12-29T06:45:12;48553.09;;;-141.90;100.00
5298;BME280;14738;42.668;23.250;2022-12-29T06:47:37;48545.16;;;-141.90;100.00
5298;BME280;14738;42.668;23.250;2022-12-29T06:50:03;48565.00;;;-141.90;100.00
5298;BME280;14738;42.668;23.250;2022-12-29T06:52:29;48547.13;;;-141.90;100.00
5298;BME280;14738;42.668;23.250;2022-12-29T06:54:54;48543.16;;;-141.90;100.00
5298;BME280;14738;42.668;23.250;2022-12-29T06:57:21;48549.13;;;-141.90;100.00
5298;BME280;14738;42.668;23.250;2022-12-29T06:59:47;48563.03;;;-141.90;100.00
5298;BME280;14738;42.668;23.250;2022-12-29T07:02:13;48545.16;;;-141.90;100.00
5298;BME280;14738;42.668;23.250;2022-12-29T07:04:43;48561.03;;;-141.90;100.00
5298;BME280;14738;42.668;23.250;2022-12-29T07:07:08;48561.03;;;-141.90;100.00
5298;BME280;14738;42.668;23.250;2022-12-29T07:11:59;48553.09;;;-141.90;100.00
5298;BME280;14738;42.668;23.250;2022-12-29T07:14:24;48545.16;;;-141.90;100.00
5298;BME280;14738;42.668;23.250;2022-12-29T07:16:50;48555.09;;;-141.90;100.00
5298;BME280;14738;42.668;23.250;2022-12-29T07:19:15;48539.19;;;-141.90;100.00
5298;BME280;14738;42.668;23.250;2022-12-29T07:21:40;48541.19;;;-141.90;100.00
5298;BME280;14738;42.668;23.250;2022-12-29T07:24:07;48541.19;;;-141.90;100.00
5298;BME280;14738;42.668;23.250;2022-12-29T07:26:32;48525.31;;;-141.90;100.00
5298;BME280;14738;42.668;23.250;2022-12-29T07:29:00;48543.16;;;-141.90;100.00
5298;BME280;14738;42.668;23.250;2022-12-29T07:31:26;48557.06;;;-141.90;100.00
5298;BME280;14738;42.668;23.250;2022-12-29T07:33:51;48539.19;;;-141.90;100.00
5298;BME280;14738;42.668;23.250;2022-12-29T07:36:17;48557.06;;;-141.90;100.00
5298;BME280;14738;42.668;23.250;2022-12-29T07:38:43;48541.19;;;-141.90;100.00
5298;BME280;14738;42.668;23.250;2022-12-29T07:41:08;48455.81;;;-141.90;100.00
5298;BME280;14738;42.668;23.250;2022-12-29T07:43:34;48529.28;;;-141.90;100.00
5298;BME280;14738;42.668;23.250;2022-12-29T07:46:00;48545.16;;;-141.90;100.00
5298;BME280;14738;42.668;23.250;2022-12-29T07:48:26;48543.16;;;-141.90;100.00
5298;BME280;14738;42.668;23.250;2022-12-29T07:50:52;48509.41;;;-141.90;100.00
5298;BME280;14738;42.668;23.250;2022-12-29T07:53:18;48521.34;;;-141.90;100.00
5298;BME280;14738;42.668;23.250;2022-12-29T07:55:45;48545.16;;;-141.90;100.00
5298;BME280;14738;42.668;23.250;2022-12-29T07:58:10;48529.28;;;-141.90;100.00
5298;BME280;14738;42.668;23.250;2022-12-29T08:00:36;48523.31;;;-141.90;100.00
5298;BME280;14738;42.668;23.250;2022-12-29T08:03:03;48509.41;;;-141.90;100.00
5298;BME280;14738;42.668;23.250;2022-12-29T08:05:30;48539.19;;;-141.90;100.00
5298;BME280;14738;42.668;23.250;2022-12-29T08:07:56;48497.50;;;-141.90;100.00
5298;BME280;14738;42.668;23.250;2022-12-29T08:10:22;48531.25;;;-141.90;100.00
5298;BME280;14738;42.668;23.250;2022-12-29T08:12:47;48517.34;;;-141.90;100.00
5298;BME280;14738;42.668;23.250;2022-12-29T08:15:12;48529.28;;;-141.90;100.00
5298;BME280;14738;42.668;23.250;2022-12-29T08:17:38;48491.56;;;-141.90;100.00
5298;BME280;14738;42.668;23.250;2022-12-29T08:20:04;48529.28;;;-141.90;100.00
5298;BME280;14738;42.668;23.250;2022-12-29T08:22:29;48529.28;;;-141.90;100.00
5298;BME280;14738;42.668;23.250;2022-12-29T08:24:55;48537.22;;;-141.90;100.00
5298;BME280;14738;42.668;23.250;2022-12-29T08:27:20;48509.41;;;-141.90;100.00
5298;BME280;14738;42.668;23.250;2022-12-29T08:29:46;48549.13;;;-141.90;100.00
5298;BME280;14738;42.668;23.250;2022-12-29T08:32:12;48547.13;;;-141.90;100.00
5298;BME280;14738;42.668;23.250;2022-12-29T08:34:37;48525.31;;;-141.90;100.00
5298;BME280;14738;42.668;23.250;2022-12-29T08:37:03;48533.25;;;-141.90;100.00
5298;BME280;14738;42.668;23.250;2022-12-29T08:39:28;48541.19;;;-141.90;100.00
5298;BME280;14738;42.668;23.250;2022-12-29T08:41:54;48529.28;;;-141.90;100.00
5298;BME280;14738;42.668;23.250;2022-12-29T08:44:19;48501.47;;;-141.90;100.00
5298;BME280;14738;42.668;23.250;2022-12-29T08:46:45;48537.22;;;-141.90;100.00
5298;BME280;14738;42.668;23.250;2022-12-29T08:49:10;48517.34;;;-141.90;100.00
5298;BME280;14738;42.668;23.250;2022-12-29T08:51:35;48529.28;;;-141.90;100.00
5298;BME280;14738;42.668;23.250;2022-12-29T08:54:01;48503.47;;;-141.90;100.00
5298;BME280;14738;42.668;23.250;2022-12-29T08:56:26;48521.34;;;-141.90;100.00
5298;BME280;14738;42.668;23.250;2022-12-29T08:58:52;48529.28;;;-141.90;100.00
5298;BME280;14738;42.668;23.250;2022-12-29T09:01:18;48497.50;;;-141.90;100.00
5298;BME280;14738;42.668;23.250;2022-12-29T09:03:44;48529.28;;;-141.90;100.00
5298;BME280;14738;42.668;23.250;2022-12-29T09:06:10;48537.22;;;-141.90;100.00
5298;BME280;14738;42.668;23.250;2022-12-29T09:08:45;48521.34;;;-141.90;100.00
5298;BME280;14738;42.668;23.250;2022-12-29T09:11:14;48531.25;;;-141.90;100.00
5298;BME280;14738;42.668;23.250;2022-12-29T09:13:40;48517.34;;;-141.90;100.00
5298;BME280;14738;42.668;23.250;2022-12-29T09:16:06;48515.38;;;-141.90;100.00
5298;BME280;14738;42.668;23.250;2022-12-29T09:18:32;48525.31;;;-141.90;100.00
5298;BME280;14738;42.668;23.250;2022-12-29T09:21:04;48519.34;;;-141.90;100.00
5298;BME280;14738;42.668;23.250;2022-12-29T09:23:30;48519.34;;;-141.90;100.00
5298;BME280;14738;42.668;23.250;2022-12-29T09:25:56;48529.28;;;-141.90;100.00
5298;BME280;14738;42.668;23.250;2022-12-29T09:28:22;48509.41;;;-141.90;100.00
5298;BME280;14738;42.668;23.250;2022-12-29T09:30:49;48497.50;;;-141.90;100.00
5298;BME280;14738;42.668;23.250;2022-12-29T09:33:15;48521.34;;;-141.90;100.00
5298;BME280;14738;42.668;23.250;2022-12-29T09:35:45;48521.34;;;-141.90;100.00
5298;BME280;14738;42.668;23.250;2022-12-29T09:38:11;48519.34;;;-141.90;100.00
5298;BME280;14738;42.668;23.250;2022-12-29T09:40:38;48521.34;;;-141.90;100.00
5298;BME280;14738;42.668;23.250;2022-12-29T09:45:55;48549.13;;;-141.90;100.00
5298;BME280;14738;42.668;23.250;2022-12-29T09:48:29;48513.38;;;-141.90;100.00
5298;BME280;14738;42.668;23.250;2022-12-29T09:54:30;48517.34;;;-141.90;100.00
5298;BME280;14738;42.668;23.250;2022-12-29T09:56:58;48501.47;;;-141.90;100.00
5298;BME280;14738;42.668;23.250;2022-12-29T09:59:30;48527.28;;;-141.90;100.00
5298;BME280;14738;42.668;23.250;2022-12-29T10:04:32;48527.28;;;-141.90;100.00
5298;BME280;14738;42.668;23.250;2022-12-29T10:07:02;48525.31;;;-141.90;100.00
5298;BME280;14738;42.668;23.250;2022-12-29T10:20:31;48517.34;;;-141.90;100.00
5298;BME280;14738;42.668;23.250;2022-12-29T10:23:32;48521.34;;;-141.90;100.00
5298;BME280;14738;42.668;23.250;2022-12-29T10:26:01;48493.53;;;-141.90;100.00
5298;BME280;14738;42.668;23.250;2022-12-29T10:28:37;48521.34;;;-141.90;100.00
5298;BME280;14738;42.668;23.250;2022-12-29T10:31:09;48499.50;;;-141.90;100.00
5298;BME280;14738;42.668;23.250;2022-12-29T10:33:39;48503.47;;;-141.90;100.00
5298;BME280;14738;42.668;23.250;2022-12-29T10:36:16;48513.38;;;-141.90;100.00
5298;BME280;14738;42.668;23.250;2022-12-29T10:40:09;48513.38;;;-141.90;100.00
5298;BME280;14738;42.668;23.250;2022-12-29T10:44:34;48511.41;;;-141.90;100.00
5298;BME280;14738;42.668;23.250;2022-12-29T10:47:06;48489.56;;;-141.90;45.77
5298;BME280;14738;42.668;23.250;2022-12-29T10:49:36;48531.25;;;-141.90;45.83
5298;BME280;14738;42.668;23.250;2022-12-29T10:52:04;48473.69;;;-141.90;45.56
5298;BME280;14738;42.668;23.250;2022-12-29T10:54:44;48501.47;;;-141.90;45.72
5298;BME280;14738;42.668;23.250;2022-12-29T10:59:45;48497.50;;;-141.90;47.24
5298;BME280;14738;42.668;23.250;2022-12-29T11:07:36;48519.34;;;-141.90;48.26
5298;BME280;14738;42.668;23.250;2022-12-29T11:10:36;48485.59;;;-141.90;47.90
5298;BME280;14738;42.668;23.250;2022-12-29T11:13:25;48489.56;;;-141.90;47.71
5298;BME280;14738;42.668;23.250;2022-12-29T11:15:51;48497.50;;;-141.90;47.96
5298;BME280;14738;42.668;23.250;2022-12-29T11:20:47;48541.19;;;-141.90;48.67
5298;BME280;14738;42.668;23.250;2022-12-29T11:23:39;48499.50;;;-141.90;48.61
5298;BME280;14738;42.668;23.250;2022-12-29T11:26:12;48511.41;;;-141.90;48.52
5298;BME280;14738;42.668;23.250;2022-12-29T11:28:40;48519.34;;;-141.90;48.57
5298;BME280;14738;42.668;23.250;2022-12-29T11:31:08;48509.41;;;-141.90;48.57
5298;BME280;14738;42.668;23.250;2022-12-29T11:33:36;48511.41;;;-141.90;49.04
5298;BME280;14738;42.668;23.250;2022-12-29T11:36:25;48479.63;;;-141.90;48.64
5298;BME280;14738;42.668;23.250;2022-12-29T11:38:52;48485.59;;;-141.90;48.38
5298;BME280;14738;42.668;23.250;2022-12-29T11:41:29;48513.38;;;-141.90;48.45
5298;BME280;14738;42.668;23.250;2022-12-29T11:43:58;48513.38;;;-141.90;48.59
5298;BME280;14738;42.668;23.250;2022-12-29T11:46:31;48525.31;;;-141.90;48.29
5298;BME280;14738;42.668;23.250;2022-12-29T11:48:58;48535.22;;;-141.90;48.49
5298;BME280;14738;42.668;23.250;2022-12-29T11:51:45;48489.56;;;-141.90;48.79
5298;BME280;14738;42.668;23.250;2022-12-29T11:54:18;48533.25;;;-141.90;48.77
5298;BME280;14738;42.668;23.250;2022-12-29T11:56:44;48513.38;;;-141.90;48.37
5298;BME280;14738;42.668;23.250;2022-12-29T12:01:59;48509.41;;;-141.90;48.52
5298;BME280;14738;42.668;23.250;2022-12-29T12:04:28;48509.41;;;-141.90;48.29
5298;BME280;14738;42.668;23.250;2022-12-29T12:09:36;48501.47;;;-141.90;48.34
5298;BME280;14738;42.668;23.250;2022-12-29T12:12:08;48521.34;;;-141.90;48.25
5298;BME280;14738;42.668;23.250;2022-12-29T12:14:55;48489.56;;;-141.90;47.66
5298;BME280;14738;42.668;23.250;2022-12-29T12:17:31;48507.44;;;-141.90;47.61
5298;BME280;14738;42.668;23.250;2022-12-29T12:22:43;48533.25;;;-141.90;48.00
5298;BME280;14738;42.668;23.250;2022-12-29T12:25:20;48503.47;;;-141.90;47.80
5298;BME280;14738;42.668;23.250;2022-12-29T12:32:50;48529.28;;;-141.90;46.51
5298;BME280;14738;42.668;23.250;2022-12-29T12:35:43;48499.50;;;-141.90;47.25
5298;BME280;14738;42.668;23.250;2022-12-29T12:43:46;48495.53;;;-141.90;46.92
5298;BME280;14738;42.668;23.250;2022-12-29T12:56:44;48499.50;;;-141.90;47.90
5298;BME280;14738;42.668;23.250;2022-12-29T13:10:49;48523.31;;;-141.90;47.46
5298;BME280;14738;42.668;23.250;2022-12-29T13:26:43;48529.28;;;-141.90;48.13
5298;BME280;14738;42.668;23.250;2022-12-29T13:30:02;48491.56;;;-141.90;48.10
5298;BME280;14738;42.668;23.250;2022-12-29T13:37:22;48499.50;;;-141.90;47.45
5298;BME280;14738;42.668;23.250;2022-12-29T13:40:04;48527.28;;;-141.90;47.55
5298;BME280;14738;42.668;23.250;2022-12-29T13:42:35;48515.38;;;-141.90;48.13
5298;BME280;14738;42.668;23.250;2022-12-29T13:45:11;48469.72;;;-141.90;48.05
5298;BME280;14738;42.668;23.250;2022-12-29T13:47:41;48509.41;;;-141.90;48.02
5298;BME280;14738;42.668;23.250;2022-12-29T13:50:22;48465.75;;;-141.90;48.73
5298;BME280;14738;42.668;23.250;2022-12-29T13:52:52;48489.56;;;-141.90;48.45
5298;BME280;14738;42.668;23.250;2022-12-29T13:55:27;48521.34;;;-141.90;48.67
5298;BME280;14738;42.668;23.250;2022-12-29T13:58:43;48477.66;;;-141.90;48.85
5298;BME280;14738;42.668;23.250;2022-12-29T14:01:02;48499.50;;;-141.90;48.13
5298;BME280;14738;42.668;23.250;2022-12-29T14:03:48;48489.56;;;-141.90;48.65
5298;BME280;14738;42.668;23.250;2022-12-29T14:06:21;48507.44;;;-141.90;48.76
5298;BME280;14738;42.668;23.250;2022-12-29T14:08:48;48525.31;;;-141.90;48.57
5298;BME280;14738;42.668;23.250;2022-12-29T14:11:16;48517.34;;;-141.90;48.92
5298;BME280;14738;42.668;23.250;2022-12-29T14:13:46;48513.38;;;-141.90;49.06
5298;BME280;14738;42.668;23.250;2022-12-29T14:16:26;48523.31;;;-141.90;49.43
5298;BME280;14738;42.668;23.250;2022-12-29T14:18:52;48511.41;;;-141.90;49.76
5298;BME280;14738;42.668;23.250;2022-12-29T14:21:25;48501.47;;;-141.90;50.57
5298;BME280;14738;42.668;23.250;2022-12-29T14:24:26;48525.31;;;-141.90;50.22
5298;BME280;14738;42.668;23.250;2022-12-29T14:26:45;48475.66;;;-141.90;50.56
5298;BME280;14738;42.668;23.250;2022-12-29T14:31:49;48515.38;;;-141.90;51.07
5298;BME280;14738;42.668;23.250;2022-12-29T14:36:56;48541.19;;;-141.90;51.42
5298;BME280;14738;42.668;23.250;2022-12-29T14:39:42;48497.50;;;-141.90;51.95
5298;BME280;14738;42.668;23.250;2022-12-29T14:44:55;48507.44;;;-141.90;52.21
5298;BME280;14738;42.668;23.250;2022-12-29T14:47:43;48521.34;;;-141.90;53.67
5298;BME280;14738;42.668;23.250;2022-12-29T14:58:02;48509.41;;;-141.90;55.60
5298;BME280;14738;42.668;23.250;2022-12-29T15:00:31;48487.56;;;-141.90;56.20
5298;BME280;14738;42.668;23.250;2022-12-29T15:05:53;48493.53;;;-141.90;57.22
5298;BME280;14738;42.668;23.250;2022-12-29T15:08:21;48473.69;;;-141.90;57.74
5298;BME280;14738;42.668;23.250;2022-12-29T15:13:22;48529.28;;;-141.90;58.09
5298;BME280;14738;42.668;23.250;2022-12-29T15:15:48;48521.34;;;-141.90;59.16
5298;BME280;14738;42.668;23.250;2022-12-29T15:18:34;48521.34;;;-141.90;60.53
5298;BME280;14738;42.668;23.250;2022-12-29T15:21:02;48517.34;;;-141.90;61.58